Lietadlo (typ, imatrikulačný znak): _________________/__________________
Meno pilota (skontroloval): ___________________________________
Podpis pilota (skontroloval): ___________________________________

Predpoveď na dnes

Oblačno až zamračené, na juhu ojedinele aj zmenšená oblačnosť. Na mnohých miestach dážď alebo prehánky, výnimočne búrky. V Žilinskom kraji a v okolí Tatier aj výdatné zrážky. Najvyššia denná teplota 15 až 20, na krajnom západe, v Žiliskom kraji a na severe Spiša okolo 13 st. Teplota na horách vo výške 1500 m okolo 6 st. Severozápadný až severný vietor 4 až 10 m/s (15 až 35 km/h), ojedinele v nárazoch okolo 14 m/s (50 km/h). Na juhu stredného Slovenska a na východe miestami slabý vietor. Na hrebeňoch Tatier prudký až búrlivý vietor. Predpokladané množstvo zrážok: do 10, na juhozápade do 3, na severe miestami 10 až 25 mm

SHMÚ, OMPaV, JA 23.5.2019 12:51 LSEČ

METAR - Letisková meteo správa

Letisková meteorologická správa METAR

Meteorologické informácie z ďalších profesionálnych meteorologických staníc SHMÚ zobrazené v tvare zodpovedajúcom pravidlám kódovania správ METAR sú uvedené v položke „METSYN Informácie o správe METAR

23.05.2019 - 21:00 UTC

METAR LZIB 232100Z 31006KT 9999 FEW046 BKN053 13/07 Q1016=
 METAR LZKZ 232100Z 03004KT 9999 BKN035 BKN080 14/09 Q1013=
 METAR LZPP 232100Z AUTO 34008KT 9999 SCT037/// BKN100/// OVC120///
 12/09 Q1016=
 METAR LZSL 232100Z 20002KT 9999 -RA FEW004 SCT060 OVC075 11/09
 Q1014=
 METAR LZTT 232100Z 26014KT 9999 FEW010 SCT050 BKN080 09/07 Q1014=
 METAR LZZI 232100Z VRB02KT 9999 SCT005 OVC033 10/09 Q1016=
 

23.05.2019 - 20:30 UTC

METAR LZIB 232030Z 32010KT 9999 SCT046 BKN059 14/07 Q1016=
 METAR LZKZ 232030Z 02004KT 9999 BKN030 BKN080 14/09 Q1013=
 METAR LZPP 232030Z AUTO 35009KT 9999 OVC035/// 12/09 Q1016=
 METAR LZSL 232030Z 00000KT 9999 -RA FEW003 SCT060 BKN077 11/09
 Q1014=
 METAR LZTT 232030Z 26011KT 9999 FEW008 BKN050 09/07 Q1014=
 METAR LZZI 232030Z 11003KT 9999 -RA FEW005 OVC026 10/09 Q1016=
 

23.05.2019 - 21:00 UTC

METAR LZMC 232100Z 35004KT 9999 BKN034 12/08 Q1017=
 METAR LZPW 232100Z AUTO 16003KT 140V230 9999 //////
 12/09 Q1013=
 

TAF - Letisková predpoveď

23.05.2019 - 17:00 UTC

TAF AMD LZPP 232010Z 2320/2403 CNL=
 

23.05.2019 - 20:00 UTC

TAF LZSL 232000Z 2321/2406 35005KT 9999 SCT060 BKN080
     PROB40 TEMPO 2321/2401 -RA SCT030 BKN060=
 TAF LZZI 232000Z 2321/2406 VRB02KT 9999 BKN018 BKN025
     TEMPO 2321/2406 4000 -RA BR BKN012 OVC020
     PROB40 TEMPO 2401/2406 2000 BR OVC008=
 

23.05.2019 - 17:00 UTC

TAF LZSL 231700Z 2318/2403 35010KT 9999 SCT040 BKN080
     TEMPO 2320/2401 -RA SCT030 BKN050=
 TAF LZPP 231700Z 2318/2403 36010KT 9999 BKN030
     TEMPO 2322/2403 -RA=
 TAF LZZI 231700Z 2318/2403 32007KT 9999 BKN018 BKN070
     TEMPO 2318/2403 -RA BKN013 OVC020
     BECMG 2323/2401 10004KT=
 

23.05.2019 - 17:00 UTC

TAF LZIB 231700Z 2318/2418 31012KT 9999 SCT035 BKN080
     BECMG 2319/2321 33006KT
     TEMPO 2408/2416 33012KT
     BECMG 2415/2417 CAVOK=
 TAF LZKZ 231700Z 2318/2418 36008KT 9999 SCT035 BKN060
     TEMPO 2318/2412 -RA BKN020 OVC050
     PROB30 TEMPO 2318/2322 5000 SHRA BKN020 FEW025CB
     TEMPO 2322/2418 01016KT
     BECMG 2416/2418 FEW030 BKN100=
 TAF LZTT 231700Z 2318/2418 26014KT 9999 SCT020 BKN050
     PROB40 TEMPO 2318/2322 4000 SHRA BKN013 FEW020CB
     TEMPO 2322/2407 27008KT -RA BKN008 OVC020
     BECMG 2408/2410 VRB02KT SCT015 BKN030
     TEMPO 2410/2416 07010KT=
 

23.05.2019 - 14:00 UTC

TAF LZSL 231400Z 2315/2400 35010KT 9999 SCT045 BKN100
     TEMPO 2315/2316 33016KT -SHRA SCT030TCU BKN045=
 TAF LZPP 231400Z 2315/2400 32012KT 9999 SCT023 OVC030
     BECMG 2318/2320 36010KT SCT030=
 TAF LZZI 231400Z 2315/2400 02005KT 9999 BKN020 BKN070
     TEMPO 2315/2316 36010KT -RA OVC020=
 

23.05.2019 - 11:00 UTC

TAF LZIB 231100Z 2312/2412 31014KT 9999 BKN025
     TEMPO 2312/2314 30015G25KT -RA
     BECMG 2318/2320 34006KT SCT040
     TEMPO 2408/2412 33012KT=
 TAF LZKZ 231100Z 2312/2412 02006KT 9999 -RA SCT025 OVC030
     TEMPO 2312/2315 32012KT 5000 SHRA BKN014 FEW025CB
     TEMPO 2400/2412 01016KT
     BECMG 2408/2410 SCT030 BKN100=
 TAF LZTT 231100Z 2312/2412 26014KT 9999 SCT020 BKN050
     PROB40 TEMPO 2312/2316 6000 SHRA SCT020CB BKN040
     BECMG 2322/2400 27008KT -RA BKN013 OVC050
     TEMPO 2322/2403 4000 RA SCT004 OVC008
     BECMG 2408/2410 09008KT SCT015 BKN030=
 

23.05.2019 - 11:00 UTC

TAF LZSL 231100Z 2312/2321 35008KT 9999 SCT045 BKN070
     TEMPO 2312/2315 33016KT -RA SCT030 BKN045=
 TAF LZPP 231100Z 2312/2321 32011KT 9999 SCT025 BKN040
     PROB40 TEMPO 2312/2315 33022KT -SHRA BKN020 FEW030TCU
     BECMG 2318/2320 36010KT SCT040=
 TAF LZZI 231100Z 2312/2321 VRB02KT 9999 BKN020 BKN070
     TEMPO 2312/2316 36010KT -RA
     BECMG 2317/2319 03006KT=
 

23.05.2019 - 08:00 UTC

TAF LZSL 230800Z 2309/2318 35008KT 9999 SCT045 BKN080
     TEMPO 2309/2315 34018KT -SHRA SCT030TCU BKN045=
 TAF LZPP 230800Z 2309/2318 31011KT 9999 SCT025 BKN040
     PROB40 TEMPO 2309/2315 33022KT -SHRA BKN020 FEW030TCU=
 TAF LZZI 230800Z 2309/2318 29006KT 9999 -RA SCT020 BKN030 BKN065
     PROB30 TEMPO 2309/2312 7000 SHRA SCT020TCU BKN030=
 

23.05.2019 - 05:00 UTC

TAF LZIB 230500Z 2306/2406 31013KT 9999 FEW013 BKN025
     PROB40 TEMPO 2306/2308 -RA BKN012
     TEMPO 2306/2314 30018G28KT
     BECMG 2308/2310 SCT030 BKN100
     BECMG 2314/2316 32009KT=
 TAF LZKZ 230500Z 2306/2406 VRB02KT 7000 SCT009 BKN015
     TEMPO 2306/2309 4000 -RA BR SCT004 OVC009
     PROB40 TEMPO 2306/2307 2500 RA BR OVC004
     BECMG 2308/2310 36010KT 9999 BKN025
     TEMPO 2310/2314 03016KT SHRA BKN025 FEW030CB
     PROB40 TEMPO 2314/2406 -RA=
 TAF LZTT 230500Z 2306/2406 26012KT 9999 SCT030 BKN050
     TEMPO 2306/2406 -RA SCT010 OVC035
     PROB40 TEMPO 2310/2320 6000 SHRA SCT030CB BKN040
     BECMG 2316/2318 27008KT=
 

23.05.2019 - 05:00 UTC

TAF LZSL 230500Z 2306/2315 25005KT 9999 SCT045 BKN080
     PROB40 TEMPO 2306/2315 7000 -SHRA SCT020TCU BKN045
     BECMG 2306/2308 35008KT=
 TAF LZPP 230500Z 2306/2315 32011KT 9999 SCT020 BKN040
     PROB30 TEMPO 2306/2315 34012G25KT 7000 -SHRA SCT020TCU BKN040=
 TAF LZZI 230500Z 2306/2315 23003KT 9999 -RA SCT028 BKN030
     TEMPO 2306/2308 5000 RA SCT003 BKN023 OVC030
     BECMG 2306/2308 33004KT
     PROB30 TEMPO 2308/2312 7000 SHRA SCT020TCU BKN030=
 

23.05.2019 - 02:00 UTC

TAF LZSL 230200Z 2303/2312 25005KT 9999 SCT045 BKN080
     PROB40 TEMPO 2303/2312 7000 -SHRA SCT020TCU BKN045
     BECMG 2306/2308 35008KT=
 TAF LZZI 230200Z 2303/2312 23007KT 9999 -RA SCT028 BKN040
     PROB40 TEMPO 2303/2312 7000 SHRA SCT020TCU BKN040
     BECMG 2306/2308 33004KT=